Windsor, California
Current Conditions -  °F | °C
As of 11:00 PM on Friday 19 Dec 2014 (Local Time) from KSTS Reporting Station
Haze Haze  
Wind Chill: 54°   Ceiling: 700
Heat Index: 54°   Visibility: 5mi
Dew Point: 52°   Wind: 0mph
Humidity: 94%   Direction: NA
Pressure: 30.16"   Gusts: NA
Location:  38.55°N, 122.81°W
Report Text: KSTS 200700Z AUTO 00000KT 5SM BR BKN007 OVC015 12/11 A3016 RMK AO2
Loading
Personal Weather Stations






























Interactive Weather Map New forecast layout! Learn more

10-Day Weather Forecast

Advertisements
Track Severe Weather on mobile